createdAt,value
2023-04-12T00:00:46.541Z,42.6
2023-04-12T00:02:46.617Z,42.7
2023-04-12T00:04:46.575Z,42.8
2023-04-12T00:06:46.568Z,42.9
2023-04-12T00:08:46.448Z,43.1
2023-04-12T00:10:46.478Z,43.2
2023-04-12T00:12:46.677Z,43.5
2023-04-12T00:14:47.768Z,43.4
2023-04-12T00:16:46.911Z,43.6
2023-04-12T00:18:46.557Z,43.9
2023-04-12T00:20:46.540Z,44
2023-04-12T00:22:46.686Z,44.1
2023-04-12T00:24:46.530Z,43.9
2023-04-12T00:26:46.454Z,44
2023-04-12T00:28:46.546Z,44.2
2023-04-12T00:30:46.569Z,44.5
2023-04-12T00:32:46.582Z,44.7
2023-04-12T00:34:46.544Z,44.7
2023-04-12T00:36:46.436Z,45.1
2023-04-12T00:38:46.426Z,45.2
2023-04-12T00:40:46.460Z,45.1
2023-04-12T00:42:46.538Z,45.3
2023-04-12T00:44:46.544Z,45.3
2023-04-12T00:46:46.485Z,45.6
2023-04-12T00:48:46.453Z,45.8
2023-04-12T00:50:46.424Z,45.9
2023-04-12T00:52:46.532Z,46.2
2023-04-12T00:54:46.541Z,46.3
2023-04-12T00:56:46.428Z,46.4
2023-04-12T00:58:46.417Z,46.4
2023-04-12T01:00:46.454Z,46.6
2023-04-12T01:02:46.536Z,46.8
2023-04-12T01:04:46.418Z,46.6
2023-04-12T01:06:46.780Z,46.5
2023-04-12T01:08:46.408Z,47
2023-04-12T01:10:46.411Z,47
2023-04-12T01:12:46.429Z,47.4
2023-04-12T01:14:46.488Z,47.2
2023-04-12T01:16:46.416Z,47.3
2023-04-12T01:18:46.478Z,47.5
2023-04-12T01:20:46.401Z,47.6
2023-04-12T01:22:46.499Z,47.4
2023-04-12T01:24:46.486Z,47.5
2023-04-12T01:26:47.015Z,47.6
2023-04-12T01:28:46.523Z,48.2
2023-04-12T01:30:46.384Z,48.1
2023-04-12T01:32:46.394Z,47.9
2023-04-12T01:34:46.489Z,47.9
2023-04-12T01:36:46.404Z,48.2
2023-04-12T01:38:46.379Z,48.4
2023-04-12T01:40:46.367Z,48.5
2023-04-12T01:42:46.383Z,48.5
2023-04-12T01:44:46.491Z,48.4
2023-04-12T01:46:46.363Z,48.6
2023-04-12T01:48:46.340Z,48.8
2023-04-12T01:50:46.455Z,49
2023-04-12T01:52:46.475Z,49
2023-04-12T01:54:46.364Z,49.1
2023-04-12T01:56:46.368Z,49.1
2023-04-12T01:58:47.518Z,49.2
2023-04-12T02:00:46.476Z,49.3
2023-04-12T02:02:46.628Z,49.5
2023-04-12T02:04:46.365Z,49.8
2023-04-12T02:06:46.343Z,49.7
2023-04-12T02:08:46.457Z,50.2
2023-04-12T02:10:46.340Z,49.7
2023-04-12T02:12:46.353Z,49.7
2023-04-12T02:14:46.333Z,49.8
2023-04-12T02:16:46.447Z,50.3
2023-04-12T02:18:46.349Z,50.4
2023-04-12T02:20:46.333Z,50.4
2023-04-12T02:22:46.449Z,50.3
2023-04-12T02:24:46.349Z,50.3
2023-04-12T02:26:46.358Z,50.7
2023-04-12T02:28:46.449Z,50.7
2023-04-12T02:30:46.388Z,50.8
2023-04-12T02:32:46.542Z,51
2023-04-12T02:34:46.306Z,51
2023-04-12T02:36:46.417Z,51.3
2023-04-12T02:38:46.303Z,51.6
2023-04-12T02:40:47.021Z,52.1
2023-04-12T02:42:46.293Z,51.9
2023-04-12T02:44:46.400Z,51.7
2023-04-12T02:46:46.313Z,52
2023-04-12T02:48:46.314Z,51.7
2023-04-12T02:50:46.302Z,53.8
2023-04-12T02:52:46.400Z,52.7
2023-04-12T02:54:46.383Z,52.6
2023-04-12T02:56:46.291Z,52.7
2023-04-12T02:58:46.305Z,52.6
2023-04-12T03:00:46.384Z,52.4
2023-04-12T03:02:46.351Z,54
2023-04-12T03:04:46.371Z,53.2
2023-04-12T03:06:46.373Z,53.8
2023-04-12T03:08:46.298Z,53.6
2023-04-12T03:10:46.359Z,53.7
2023-04-12T03:12:46.343Z,53.5
2023-04-12T03:14:46.902Z,54.7
2023-04-12T03:16:46.254Z,54.4
2023-04-12T03:18:46.353Z,53.9
2023-04-12T03:20:47.607Z,54.5
2023-04-12T03:22:46.258Z,54.5
2023-04-12T03:24:46.243Z,54.5
2023-04-12T03:26:46.251Z,54.7
2023-04-12T03:28:46.245Z,55.9
2023-04-12T03:30:46.275Z,54.8
2023-04-12T03:32:46.422Z,55.2
2023-04-12T03:34:46.234Z,54.3
2023-04-12T03:36:46.372Z,54.4
2023-04-12T03:38:46.245Z,55
2023-04-12T03:40:46.321Z,54.3
2023-04-12T03:42:46.236Z,55.9
2023-04-12T03:44:46.317Z,55.4
2023-04-12T03:46:46.332Z,54.8
2023-04-12T03:48:46.288Z,55
2023-04-12T03:50:46.313Z,55.6
2023-04-12T03:52:46.209Z,55.5
2023-04-12T03:54:46.293Z,55.1
2023-04-12T03:56:47.317Z,55.4
2023-04-12T03:58:46.278Z,55.7
2023-04-12T04:00:46.294Z,55.9
2023-04-12T04:02:46.256Z,55.7
2023-04-12T04:04:46.232Z,55.5
2023-04-12T04:06:46.198Z,55.2
2023-04-12T04:08:46.197Z,56
2023-04-12T04:10:46.294Z,56.2
2023-04-12T04:12:46.613Z,55.3
2023-04-12T04:14:46.263Z,56.1
2023-04-12T04:16:46.358Z,55.4
2023-04-12T04:18:46.192Z,55.7
2023-04-12T04:20:46.199Z,56
2023-04-12T04:22:46.179Z,56.2
2023-04-12T04:24:46.188Z,55.6
2023-04-12T04:26:46.181Z,55.6
2023-04-12T04:28:46.176Z,56
2023-04-12T04:30:46.181Z,55.8
2023-04-12T04:32:46.303Z,55.8
2023-04-12T04:34:46.290Z,55.7
2023-04-12T04:36:46.169Z,55.8
2023-04-12T04:38:46.200Z,55.8
2023-04-12T04:40:46.233Z,56.3
2023-04-12T04:42:46.258Z,56.5
2023-04-12T04:44:46.138Z,57
2023-04-12T04:46:46.147Z,56.1
2023-04-12T04:48:46.218Z,56.6
2023-04-12T04:50:46.213Z,56.6
2023-04-12T04:52:46.158Z,56.1
2023-04-12T04:54:46.220Z,56.5
2023-04-12T04:56:46.167Z,55.9
2023-04-12T04:58:46.193Z,55.9
2023-04-12T05:00:46.349Z,55.9
2023-04-12T05:02:46.528Z,56.2
2023-04-12T05:04:46.340Z,56.1
2023-04-12T05:06:46.237Z,56
2023-04-12T05:08:46.447Z,56.1
2023-04-12T05:10:46.554Z,56.3
2023-04-12T05:12:46.379Z,56.1
2023-04-12T05:14:51.385Z,56.3
2023-04-12T05:16:46.419Z,56.6
2023-04-12T05:18:46.363Z,56.5
2023-04-12T05:20:46.381Z,56.7
2023-04-12T05:22:46.338Z,57.1
2023-04-12T05:24:46.327Z,56.7
2023-04-12T05:26:46.368Z,56.3
2023-04-12T05:28:46.381Z,56.9
2023-04-12T05:30:46.422Z,56.7
2023-04-12T05:32:46.165Z,56.6
2023-04-12T05:34:46.450Z,56.5
2023-04-12T05:36:46.359Z,56.4
2023-04-12T05:38:46.339Z,56.6
2023-04-12T05:40:46.137Z,56.9
2023-04-12T05:42:46.181Z,56.5
2023-04-12T05:44:48.059Z,56.6
2023-04-12T05:46:46.261Z,56.7
2023-04-12T05:48:46.519Z,56.7
2023-04-12T05:50:46.408Z,56.5
2023-04-12T05:52:46.419Z,56.5
2023-04-12T05:54:46.314Z,56.5
2023-04-12T05:56:46.452Z,56.6
2023-04-12T05:58:46.426Z,56.8
2023-04-12T06:00:46.367Z,57.2
2023-04-12T06:02:46.622Z,56.8
2023-04-12T06:04:49.943Z,57.1
2023-04-12T06:06:47.373Z,56.9
2023-04-12T06:08:46.165Z,57.4
2023-04-12T06:10:46.381Z,57.1
2023-04-12T06:12:46.267Z,57.3
2023-04-12T06:14:46.326Z,57
2023-04-12T06:16:46.400Z,57.3
2023-04-12T06:18:46.293Z,57
2023-04-12T06:20:46.421Z,57.6
2023-04-12T06:22:47.474Z,57.2
2023-04-12T06:24:46.323Z,57.4
2023-04-12T06:26:46.362Z,57.1
2023-04-12T06:28:46.443Z,57.3
2023-04-12T06:30:46.351Z,57.3
2023-04-12T06:32:46.472Z,57.2
2023-04-12T06:34:46.359Z,57.2
2023-04-12T06:36:46.465Z,57.3
2023-04-12T06:38:46.366Z,57.4
2023-04-12T06:40:46.357Z,57.2
2023-04-12T06:42:46.434Z,57.7
2023-04-12T06:44:46.408Z,57.3
2023-04-12T06:46:46.404Z,57.2
2023-04-12T06:48:46.354Z,57.5
2023-04-12T06:50:46.356Z,57.3
2023-04-12T06:52:46.313Z,57.3
2023-04-12T06:54:46.588Z,57.6
2023-04-12T06:56:46.261Z,57.3
2023-04-12T06:58:46.384Z,57.3
2023-04-12T07:00:46.373Z,57.3
2023-04-12T07:02:46.366Z,57.3
2023-04-12T07:04:46.275Z,57.3
2023-04-12T07:06:46.288Z,57.3
2023-04-12T07:08:46.350Z,57.4
2023-04-12T07:10:46.212Z,57.6
2023-04-12T07:12:46.350Z,57.3
2023-04-12T07:14:46.500Z,57.2
2023-04-12T07:16:46.303Z,57.1
2023-04-12T07:18:46.164Z,57.1
2023-04-12T07:20:46.343Z,57.2
2023-04-12T07:22:46.170Z,57.2
2023-04-12T07:24:46.314Z,57.1
2023-04-12T07:26:46.253Z,56.8
2023-04-12T07:28:46.417Z,56.7
2023-04-12T07:30:46.295Z,56.8
2023-04-12T07:32:46.342Z,56.8
2023-04-12T07:34:46.277Z,56.8
2023-04-12T07:36:46.237Z,56.8
2023-04-12T07:38:46.257Z,56.8
2023-04-12T07:40:49.226Z,56.9
2023-04-12T07:42:46.257Z,57
2023-04-12T07:44:46.317Z,56.9
2023-04-12T07:46:46.217Z,56.6
2023-04-12T07:48:46.295Z,56.5
2023-04-12T07:50:46.244Z,56.5
2023-04-12T07:52:46.225Z,56.5
2023-04-12T07:54:46.304Z,56.4
2023-04-12T07:56:46.245Z,56.4
2023-04-12T07:58:46.273Z,56.4
2023-04-12T08:00:46.222Z,56.5
2023-04-12T08:02:46.311Z,56.5
2023-04-12T08:04:46.110Z,56.5
2023-04-12T08:06:46.217Z,56.3
2023-04-12T08:08:46.286Z,56.3
2023-04-12T08:10:46.212Z,56.3
2023-04-12T08:12:46.280Z,56.2
2023-04-12T08:14:46.294Z,56.3
2023-04-12T08:16:46.260Z,56.2
2023-04-12T08:18:46.268Z,56.6
2023-04-12T08:20:46.196Z,56.6
2023-04-12T08:22:46.251Z,56.6
2023-04-12T08:24:46.253Z,56.6
2023-04-12T08:26:46.251Z,56.5
2023-04-12T08:28:46.232Z,56.4
2023-04-12T08:30:46.198Z,56.4
2023-04-12T08:32:46.239Z,56.5
2023-04-12T08:34:46.247Z,56.4
2023-04-12T08:36:47.388Z,56.3
2023-04-12T08:38:46.685Z,56.2
2023-04-12T08:40:46.305Z,56.3
2023-04-12T08:42:46.248Z,56.3
2023-04-12T08:44:46.201Z,56.5
2023-04-12T08:46:46.202Z,56.4
2023-04-12T08:48:46.265Z,56.4
2023-04-12T08:50:46.184Z,56.4
2023-04-12T08:52:46.178Z,56.1
2023-04-12T08:54:46.103Z,56.2
2023-04-12T08:56:46.226Z,55.9
2023-04-12T08:58:46.177Z,56
2023-04-12T09:00:46.220Z,56.2
2023-04-12T09:02:46.242Z,56.3
2023-04-12T09:04:46.249Z,56.2
2023-04-12T09:06:46.145Z,56.1
2023-04-12T09:08:46.174Z,56.1
2023-04-12T09:10:46.161Z,56.2
2023-04-12T09:12:46.080Z,56.2
2023-04-12T09:14:46.031Z,56.2
2023-04-12T09:16:46.256Z,56.2
2023-04-12T09:18:46.170Z,56.2
2023-04-12T09:20:46.100Z,56.3
2023-04-12T09:22:46.473Z,56.3
2023-04-12T09:24:46.197Z,56.3
2023-04-12T09:26:46.123Z,56.3
2023-04-12T09:28:46.349Z,56.3
2023-04-12T09:30:46.132Z,56.3
2023-04-12T09:32:46.164Z,56.3
2023-04-12T09:34:46.054Z,56.4
2023-04-12T09:36:45.977Z,56.4
2023-04-12T09:38:45.985Z,56.5
2023-04-12T09:40:45.999Z,56.5
2023-04-12T09:42:46.122Z,56.5
2023-04-12T09:44:45.969Z,56.6
2023-04-12T09:46:48.129Z,56.7
2023-04-12T09:48:46.072Z,56.7
2023-04-12T09:50:45.980Z,56.7
2023-04-12T09:52:45.996Z,56.7
2023-04-12T09:54:46.149Z,56.8
2023-04-12T09:56:45.983Z,56.7
2023-04-12T09:58:45.974Z,56.9
2023-04-12T10:00:46.049Z,56.8
2023-04-12T10:02:46.995Z,56.8
2023-04-12T10:04:46.161Z,57.1
2023-04-12T10:06:46.061Z,57.2
2023-04-12T10:08:46.133Z,57.4
2023-04-12T10:10:45.936Z,57.2
2023-04-12T10:12:46.015Z,57.1
2023-04-12T10:14:46.104Z,57
2023-04-12T10:16:46.190Z,57
2023-04-12T10:18:46.080Z,57.1
2023-04-12T10:20:45.935Z,57.7
2023-04-12T10:22:46.003Z,57.9
2023-04-12T10:24:46.061Z,57.7
2023-04-12T10:26:45.985Z,57.6
2023-04-12T10:28:46.028Z,57.4
2023-04-12T10:30:45.985Z,57.5
2023-04-12T10:32:45.986Z,57.5
2023-04-12T10:34:45.985Z,57.5
2023-04-12T10:36:45.989Z,57.5
2023-04-12T10:38:45.939Z,57.6
2023-04-12T10:40:45.942Z,57.5
2023-04-12T10:42:46.003Z,57.7
2023-04-12T10:44:45.944Z,57.6
2023-04-12T10:46:46.012Z,57.5
2023-04-12T10:48:45.881Z,57.4
2023-04-12T10:50:45.884Z,57.5
2023-04-12T10:52:45.889Z,57.7
2023-04-12T10:54:45.903Z,57.9
2023-04-12T10:56:45.896Z,57.6
2023-04-12T10:58:45.857Z,57.7
2023-04-12T11:00:45.999Z,57.7
2023-04-12T11:02:45.961Z,57.8
2023-04-12T11:04:45.878Z,57.6
2023-04-12T11:06:45.738Z,57.4
2023-04-12T11:08:45.701Z,57.4
2023-04-12T11:10:45.729Z,57.6
2023-04-12T11:12:45.700Z,58
2023-04-12T11:14:45.775Z,57.8
2023-04-12T11:16:45.791Z,57.6
2023-04-12T11:18:45.747Z,57.9
2023-04-12T11:20:45.711Z,57.7
2023-04-12T11:22:45.735Z,58
2023-04-12T11:24:45.676Z,58.3
2023-04-12T11:26:45.667Z,57.9
2023-04-12T11:28:45.673Z,58
2023-04-12T11:30:45.794Z,58.3
2023-04-12T11:32:45.703Z,57.8
2023-04-12T11:34:45.707Z,58
2023-04-12T11:36:56.100Z,57.7
2023-04-12T11:38:45.719Z,58.2
2023-04-12T11:40:45.670Z,58.1
2023-04-12T11:42:45.661Z,58
2023-04-12T11:44:55.000Z,58.1
2023-04-12T11:46:45.641Z,57.8
2023-04-12T11:48:45.667Z,58
2023-04-12T11:50:48.427Z,57.8
2023-04-12T11:52:45.651Z,57.7
2023-04-12T11:54:45.681Z,57.8
2023-04-12T11:56:45.688Z,57.8
2023-04-12T11:58:45.709Z,58
2023-04-12T12:00:45.659Z,58.2
2023-04-12T12:02:52.467Z,57.8
2023-04-12T12:04:45.835Z,57.9
2023-04-12T12:06:45.840Z,57.8
2023-04-12T12:08:45.642Z,58
2023-04-12T12:11:00.416Z,58.7
2023-04-12T12:12:45.663Z,58.1
2023-04-12T12:14:45.620Z,57.9
2023-04-12T12:16:45.613Z,57.9
2023-04-12T12:18:45.654Z,57.7
2023-04-12T12:20:45.720Z,57.8
2023-04-12T12:22:45.605Z,57.7
2023-04-12T12:24:45.632Z,57.5
2023-04-12T12:26:45.616Z,57.3
2023-04-12T12:28:45.635Z,57.3
2023-04-12T12:30:45.624Z,57.2
2023-04-12T12:32:45.659Z,57.2
2023-04-12T12:34:45.677Z,56.9
2023-04-12T12:36:45.602Z,56.7
2023-04-12T12:38:45.702Z,56.7
2023-04-12T12:40:45.670Z,56.3
2023-04-12T12:42:45.631Z,55.8
2023-04-12T12:44:45.604Z,55.9
2023-04-12T12:46:54.086Z,55.7
2023-04-12T12:48:45.578Z,55.4
2023-04-12T12:50:45.599Z,55.7
2023-04-12T12:52:45.603Z,55.5
2023-04-12T12:54:45.607Z,55.1
2023-04-12T12:56:45.653Z,54.7
2023-04-12T12:58:45.611Z,54.1
2023-04-12T13:00:45.588Z,54.2
2023-04-12T13:02:45.724Z,54.1
2023-04-12T13:04:45.662Z,53.5
2023-04-12T13:06:45.578Z,53.2
2023-04-12T13:08:45.586Z,53
2023-04-12T13:10:45.574Z,53
2023-04-12T13:12:45.570Z,53.6
2023-04-12T13:14:45.556Z,52.9
2023-04-12T13:16:45.614Z,52.1
2023-04-12T13:18:45.680Z,51.9
2023-04-12T13:20:45.604Z,51.8
2023-04-12T13:22:45.557Z,51.6
2023-04-12T13:24:45.555Z,50.3
2023-04-12T13:26:45.564Z,49.2
2023-04-12T13:28:45.576Z,50.3
2023-04-12T13:30:45.564Z,51
2023-04-12T13:32:45.652Z,51.4
2023-04-12T13:34:45.533Z,51.6
2023-04-12T13:36:45.554Z,51.9
2023-04-12T13:38:45.567Z,52
2023-04-12T13:40:45.547Z,52.1
2023-04-12T13:42:45.510Z,51.5
2023-04-12T13:44:45.567Z,51.7
2023-04-12T13:46:45.521Z,51.6
2023-04-12T13:48:45.536Z,51.3
2023-04-12T13:50:46.476Z,51.8
2023-04-12T13:52:45.534Z,51.6
2023-04-12T13:54:45.493Z,51.4
2023-04-12T13:56:45.526Z,50.7
2023-04-12T13:58:45.541Z,50.9
2023-04-12T14:00:45.526Z,51.1
2023-04-12T14:02:45.569Z,50.9
2023-04-12T14:04:45.505Z,50.8
2023-04-12T14:06:45.504Z,49.9
2023-04-12T14:08:46.490Z,50
2023-04-12T14:10:45.483Z,50.1
2023-04-12T14:12:45.481Z,49.1
2023-04-12T14:14:45.488Z,50
2023-04-12T14:16:45.470Z,49.9
2023-04-12T14:18:45.521Z,49.8
2023-04-12T14:20:45.508Z,49.8
2023-04-12T14:22:45.481Z,49.4
2023-04-12T14:24:45.487Z,48.8
2023-04-12T14:26:45.460Z,49.6
2023-04-12T14:28:45.473Z,49.9
2023-04-12T14:30:45.479Z,50
2023-04-12T14:32:47.246Z,50.1
2023-04-12T14:34:45.475Z,49.9
2023-04-12T14:36:45.420Z,49.9
2023-04-12T14:38:45.471Z,50
2023-04-12T14:40:45.566Z,50.3
2023-04-12T14:42:45.501Z,50.2
2023-04-12T14:44:45.461Z,50.2
2023-04-12T14:46:45.422Z,49.6
2023-04-12T14:48:45.454Z,49.8
2023-04-12T14:50:45.457Z,50
2023-04-12T14:52:45.460Z,50.1
2023-04-12T14:54:45.425Z,48.8
2023-04-12T14:56:51.397Z,49.1
2023-04-12T14:58:45.570Z,49.2
2023-04-12T15:00:45.830Z,48.7
2023-04-12T15:02:45.641Z,48.9
2023-04-12T15:04:45.545Z,47.9
2023-04-12T15:06:45.458Z,48
2023-04-12T15:08:45.418Z,48.3
2023-04-12T15:10:45.441Z,49
2023-04-12T15:12:45.439Z,49.1
2023-04-12T15:14:45.802Z,48.9
2023-04-12T15:16:45.450Z,46.8
2023-04-12T15:18:45.407Z,46.7
2023-04-12T15:20:45.397Z,46.9
2023-04-12T15:22:45.408Z,46.9
2023-04-12T15:24:45.467Z,47.1
2023-04-12T15:26:45.401Z,46.8
2023-04-12T15:28:45.431Z,45.7
2023-04-12T15:30:45.409Z,46.2
2023-04-12T15:32:45.429Z,45.3
2023-04-12T15:34:45.401Z,45.5
2023-04-12T15:36:45.393Z,46.1
2023-04-12T15:38:45.406Z,45.7
2023-04-12T15:40:45.419Z,43.3
2023-04-12T15:42:45.398Z,43.6
2023-04-12T15:44:46.250Z,44.8
2023-04-12T15:46:48.825Z,44.6
2023-04-12T15:48:45.387Z,44.1
2023-04-12T15:50:45.382Z,45.3
2023-04-12T15:52:45.376Z,45.7
2023-04-12T15:54:45.388Z,45.8
2023-04-12T15:56:45.396Z,45.5
2023-04-12T15:58:45.375Z,44.8
2023-04-12T16:00:45.393Z,44
2023-04-12T16:02:45.560Z,43.3
2023-04-12T16:04:45.523Z,43.8
2023-04-12T16:06:45.362Z,43.1
2023-04-12T16:08:46.786Z,43
2023-04-12T16:10:45.357Z,43.3
2023-04-12T16:12:45.370Z,44
2023-04-12T16:14:45.351Z,43.5
2023-04-12T16:16:45.464Z,39.9
2023-04-12T16:18:45.389Z,42.2
2023-04-12T16:20:45.454Z,41.9
2023-04-12T16:22:45.359Z,41
2023-04-12T16:24:45.358Z,37.4
2023-04-12T16:26:45.333Z,37.7
2023-04-12T16:28:45.362Z,34.8
2023-04-12T16:30:45.363Z,36.1
2023-04-12T16:32:45.335Z,36.9
2023-04-12T16:34:45.360Z,36.8
2023-04-12T16:36:45.353Z,37.4
2023-04-12T16:38:45.307Z,38
2023-04-12T16:40:45.363Z,37.8
2023-04-12T16:42:45.379Z,37.4
2023-04-12T16:44:45.305Z,37.4
2023-04-12T16:46:45.367Z,35.8
2023-04-12T16:48:45.333Z,36.2
2023-04-12T16:50:45.310Z,37.2
2023-04-12T16:52:45.363Z,38
2023-04-12T16:54:45.361Z,37.2
2023-04-12T16:56:45.339Z,37.7
2023-04-12T16:58:45.369Z,38.8
2023-04-12T17:00:45.315Z,38.5
2023-04-12T17:02:45.614Z,38.5
2023-04-12T17:04:45.341Z,38.6
2023-04-12T17:06:45.316Z,38.9
2023-04-12T17:08:45.322Z,35.9
2023-04-12T17:10:45.289Z,36.5
2023-04-12T17:12:45.280Z,36.8
2023-04-12T17:14:45.266Z,36.8
2023-04-12T17:16:45.418Z,37
2023-04-12T17:18:45.370Z,36.9
2023-04-12T17:20:45.274Z,37.6
2023-04-12T17:22:45.271Z,34.2
2023-04-12T17:24:45.329Z,35.2
2023-04-12T17:26:45.257Z,35.7
2023-04-12T17:28:45.354Z,35.1
2023-04-12T17:30:45.258Z,34.5
2023-04-12T17:32:45.291Z,35.4
2023-04-12T17:34:45.278Z,35.9
2023-04-12T17:36:45.245Z,36.4
2023-04-12T17:38:45.290Z,34.9
2023-04-12T17:40:45.282Z,35.6
2023-04-12T17:42:45.286Z,36.4
2023-04-12T17:44:45.245Z,36.7
2023-04-12T17:46:45.280Z,36.6
2023-04-12T17:48:45.266Z,35.6
2023-04-12T17:50:45.299Z,35.3
2023-04-12T17:52:45.261Z,35.7
2023-04-12T17:54:45.310Z,36.2
2023-04-12T17:56:45.285Z,36.8
2023-04-12T17:58:45.268Z,36.3
2023-04-12T18:00:45.265Z,34.8
2023-04-12T18:02:45.332Z,33.2
2023-04-12T18:04:45.355Z,34.7
2023-04-12T18:06:45.222Z,33.7
2023-04-12T18:08:45.346Z,33.6
2023-04-12T18:10:45.222Z,32.2
2023-04-12T18:12:45.356Z,31.3
2023-04-12T18:14:45.258Z,31.6
2023-04-12T18:16:45.234Z,32.7
2023-04-12T18:18:45.227Z,32.6
2023-04-12T18:20:45.234Z,33.3
2023-04-12T18:22:46.796Z,33.6
2023-04-12T18:24:45.247Z,33.7
2023-04-12T18:26:45.270Z,33.9
2023-04-12T18:28:45.207Z,32.4
2023-04-12T18:30:48.903Z,33
2023-04-12T18:32:45.256Z,33.8
2023-04-12T18:34:45.256Z,33.1
2023-04-12T18:36:45.207Z,31.3
2023-04-12T18:38:45.230Z,32.7
2023-04-12T18:40:45.244Z,33.6
2023-04-12T18:42:45.193Z,33.6
2023-04-12T18:44:45.215Z,34.1
2023-04-12T18:46:45.331Z,32.3
2023-04-12T18:48:45.207Z,33.2
2023-04-12T18:50:45.216Z,34.3
2023-04-12T18:52:45.218Z,34.6
2023-04-12T18:54:45.201Z,33.9
2023-04-12T18:56:45.180Z,33.2
2023-04-12T18:58:54.321Z,33
2023-04-12T19:00:45.287Z,31.2
2023-04-12T19:02:45.279Z,32.5
2023-04-12T19:04:45.211Z,32.1
2023-04-12T19:06:45.197Z,33.8
2023-04-12T19:08:45.216Z,32.7
2023-04-12T19:10:45.157Z,30.3
2023-04-12T19:12:45.307Z,30.9
2023-04-12T19:14:45.222Z,31
2023-04-12T19:16:45.292Z,32
2023-04-12T19:18:45.154Z,32.3
2023-04-12T19:20:45.181Z,32
2023-04-12T19:22:45.205Z,32.6
2023-04-12T19:24:45.156Z,31.8
2023-04-12T19:26:45.128Z,32.3
2023-04-12T19:28:45.160Z,31.9
2023-04-12T19:30:45.134Z,31.6
2023-04-12T19:32:45.177Z,31.5
2023-04-12T19:34:45.173Z,32.4
2023-04-12T19:36:45.119Z,32.2
2023-04-12T19:38:50.151Z,32
2023-04-12T19:40:45.181Z,31.1
2023-04-12T19:42:45.149Z,32.8
2023-04-12T19:44:45.243Z,33
2023-04-12T19:46:45.156Z,31.7
2023-04-12T19:48:45.126Z,31.1
2023-04-12T19:50:46.651Z,31.4
2023-04-12T19:52:45.149Z,31.7
2023-04-12T19:54:45.136Z,30.8
2023-04-12T19:56:45.141Z,30.6
2023-04-12T19:58:45.145Z,30.8
2023-04-12T20:00:45.173Z,31.8
2023-04-12T20:02:45.142Z,30.8
2023-04-12T20:04:45.109Z,31.5
2023-04-12T20:06:45.102Z,29.6
2023-04-12T20:08:45.103Z,29.8
2023-04-12T20:10:45.121Z,31.3
2023-04-12T20:12:45.086Z,30.6
2023-04-12T20:14:45.116Z,30
2023-04-12T20:16:45.357Z,30.4
2023-04-12T20:18:45.110Z,30.1
2023-04-12T20:20:45.108Z,29.8
2023-04-12T20:22:45.096Z,31.4
2023-04-12T20:24:45.102Z,29.3
2023-04-12T20:26:45.246Z,31.2
2023-04-12T20:28:45.110Z,30.7
2023-04-12T20:30:45.112Z,30.5
2023-04-12T20:32:45.314Z,30.4
2023-04-12T20:34:45.117Z,31
2023-04-12T20:36:45.089Z,31
2023-04-12T20:38:45.063Z,31.1
2023-04-12T20:40:45.055Z,31.6
2023-04-12T20:42:45.114Z,30
2023-04-12T20:44:45.087Z,29.9
2023-04-12T20:46:45.132Z,29.4
2023-04-12T20:48:45.053Z,30.1
2023-04-12T20:50:45.062Z,29.1
2023-04-12T20:52:45.082Z,29.1
2023-04-12T20:54:45.088Z,28.2
2023-04-12T20:56:45.081Z,28.7
2023-04-12T20:58:45.038Z,29.1
2023-04-12T21:00:45.109Z,30
2023-04-12T21:02:45.283Z,29.4
2023-04-12T21:04:45.269Z,30.4
2023-04-12T21:06:45.097Z,28.4
2023-04-12T21:08:45.050Z,30.2
2023-04-12T21:10:45.077Z,29.4
2023-04-12T21:12:45.325Z,29.4
2023-04-12T21:14:45.078Z,29.6
2023-04-12T21:16:45.064Z,29.8
2023-04-12T21:18:45.087Z,28.8
2023-04-12T21:20:45.038Z,28.3
2023-04-12T21:22:45.108Z,29.2
2023-04-12T21:24:45.015Z,29.4
2023-04-12T21:26:45.067Z,29.4
2023-04-12T21:28:45.008Z,29.6
2023-04-12T21:30:45.012Z,29.3
2023-04-12T21:32:45.217Z,29.1
2023-04-12T21:34:45.022Z,30.1
2023-04-12T21:36:45.070Z,30
2023-04-12T21:38:45.012Z,30.4
2023-04-12T21:40:45.066Z,30.4
2023-04-12T21:42:45.044Z,28.8
2023-04-12T21:44:44.998Z,29.6
2023-04-12T21:46:44.989Z,29.9
2023-04-12T21:48:45.017Z,30.2
2023-04-12T21:50:45.017Z,30.4
2023-04-12T21:52:44.991Z,30.7
2023-04-12T21:54:45.000Z,31
2023-04-12T21:56:45.018Z,30.2
2023-04-12T21:58:45.013Z,30
2023-04-12T22:00:45.034Z,30.1
2023-04-12T22:02:45.069Z,30.3
2023-04-12T22:04:44.977Z,30.1
2023-04-12T22:06:45.010Z,30.3
2023-04-12T22:08:45.031Z,29.5
2023-04-12T22:10:44.983Z,30.2
2023-04-12T22:12:45.006Z,30.8
2023-04-12T22:14:45.212Z,30.8
2023-04-12T22:16:44.988Z,31.3
2023-04-12T22:18:44.977Z,30.9
2023-04-12T22:20:44.977Z,31.5
2023-04-12T22:22:44.994Z,30.5
2023-04-12T22:24:44.981Z,31.2
2023-04-12T22:26:44.955Z,31.8
2023-04-12T22:28:44.984Z,32.1
2023-04-12T22:30:44.965Z,31.9
2023-04-12T22:32:45.003Z,31.8
2023-04-12T22:34:45.079Z,32.1
2023-04-12T22:36:45.008Z,32
2023-04-12T22:38:44.970Z,31.9
2023-04-12T22:40:44.962Z,31.9
2023-04-12T22:42:44.997Z,32.5
2023-04-12T22:44:44.953Z,32.7
2023-04-12T22:46:44.997Z,32.7
2023-04-12T22:48:44.936Z,32.3
2023-04-12T22:50:44.974Z,32.4
2023-04-12T22:52:44.986Z,32.3
2023-04-12T22:54:45.008Z,32.2
2023-04-12T22:56:44.991Z,31.8
2023-04-12T22:58:44.906Z,32.3
2023-04-12T23:00:45.043Z,32.1
2023-04-12T23:02:45.026Z,31.7
2023-04-12T23:04:44.995Z,31.9
2023-04-12T23:06:44.944Z,32.1
2023-04-12T23:08:44.915Z,32.4
2023-04-12T23:10:44.950Z,32.2
2023-04-12T23:12:44.941Z,32.7
2023-04-12T23:14:44.904Z,33
2023-04-12T23:16:44.968Z,33.3
2023-04-12T23:18:44.958Z,33.5
2023-04-12T23:20:44.947Z,34
2023-04-12T23:22:55.650Z,34.2
2023-04-12T23:24:44.922Z,34.1
2023-04-12T23:26:44.981Z,34.3
2023-04-12T23:28:44.859Z,34.3
2023-04-12T23:30:44.907Z,34.6
2023-04-12T23:32:44.919Z,34.5
2023-04-12T23:34:44.921Z,34.8
2023-04-12T23:36:44.916Z,34.9
2023-04-12T23:38:44.910Z,35.1
2023-04-12T23:40:44.893Z,35.3
2023-04-12T23:42:44.914Z,35.7
2023-04-12T23:44:44.904Z,35.9
2023-04-12T23:46:44.971Z,36.1
2023-04-12T23:48:44.907Z,36.2
2023-04-12T23:50:44.872Z,36.6
2023-04-12T23:52:44.869Z,36.5
2023-04-12T23:54:44.855Z,36.6
2023-04-12T23:56:44.853Z,36.8
2023-04-12T23:58:44.914Z,36.8
